Terminal Aerodrome Forecast
Issued by NWS

Home | Current Version | Previous Version | Graphics & Text | Print | Product List | Glossary On
Versions: 1 2 3 4 5 6 7 8 9 10 11 12 13
423
FTUS42 KMHX 212341
TAFOAJ
TAF
KOAJ 212341Z 2200/2224 25007KT P6SM VCTS SCT040CB BKN090
     FM220100 VRB04KT P6SM BKN090
     FM221000 34006KT P6SM SKC
      AMD LTD TO CLD VIS AND WIND=

USA.gov is the U.S. government's official web portal to all federal, state and local government web resources and services.